Time;durP1;ratioP1;P1;durP2;ratioP2;P2;SDS_P1;SDS_P2;PMS_P1;PMS_P2;Temp;Humidity;BMP_temperature;BMP_pressure;BME280_temperature;BME280_humidity;BME280_pressure;Samples;Min_cycle;Max_cycle;Signal;HPM_P1;HPM_P2
2022/06/03 00:00:00;;;;;;;6.72;3.30;;;;;;;16.54;58.30;99176.09;5222615;28;20049;-70
2022/06/03 00:03:08;;;;;;;4.75;2.92;;;;;;;16.45;58.44;99168.13;5217862;28;20107;-70
2022/06/03 00:06:25;;;;;;;4.78;3.60;;;;;;;16.58;58.21;99167.53;5222690;28;20049;-70
2022/06/03 00:09:27;;;;;;;9.95;3.47;;;;;;;16.60;57.93;99170.88;5221150;28;20077;-70
2022/06/03 00:12:30;;;;;;;4.30;3.28;;;;;;;16.36;58.85;99179.91;5227183;28;20056;-70
2022/06/03 00:15:34;;;;;;;4.18;3.40;;;;;;;16.25;58.75;99171.44;5226780;28;20418;-70
2022/06/03 00:18:48;;;;;;;4.93;3.30;;;;;;;16.33;58.52;99172.22;5226963;28;20134;-71
2022/06/03 00:21:45;;;;;;;4.97;3.40;;;;;;;16.20;59.01;99163.94;5226448;28;20310;-70
2022/06/03 00:24:59;;;;;;;6.57;3.45;;;;;;;16.28;58.80;99169.22;5211981;28;20622;-70
2022/06/03 00:28:14;;;;;;;6.30;3.80;;;;;;;16.09;59.04;99172.34;5212013;28;20068;-70
2022/06/03 00:31:47;;;;;;;3.93;3.33;;;;;;;16.07;58.50;99131.56;5226427;28;20048;-71
2022/06/03 00:35:03;;;;;;;3.83;3.42;;;;;;;16.15;58.48;99158.28;5219339;28;20061;-70
2022/06/03 00:38:16;;;;;;;4.70;3.40;;;;;;;15.97;58.77;99159.38;5201413;28;20045;-70
2022/06/03 00:41:19;;;;;;;4.22;3.60;;;;;;;15.97;59.13;99156.69;5226304;28;20068;-70
2022/06/03 00:44:15;;;;;;;8.73;3.55;;;;;;;15.90;59.06;99154.91;5215338;28;20446;-70
2022/06/03 00:47:43;;;;;;;6.68;3.70;;;;;;;15.97;58.81;99153.19;5226604;28;20119;-70
2022/06/03 00:50:50;;;;;;;6.38;3.67;;;;;;;15.83;58.96;99157.44;5216590;28;20426;-70
2022/06/03 00:53:49;;;;;;;3.50;3.20;;;;;;;15.82;59.22;99158.41;5226036;28;20060;-70
2022/06/03 00:56:42;;;;;;;9.70;3.70;;;;;;;15.84;59.10;99161.75;5226172;28;20090;-70
2022/06/03 01:00:07;;;;;;;4.53;3.55;;;;;;;15.93;58.67;99154.56;5225993;28;20419;-70
2022/06/03 01:03:41;;;;;;;4.15;3.53;;;;;;;15.85;58.54;99157.25;5223754;28;20071;-71
2022/06/03 01:06:55;;;;;;;7.07;3.55;;;;;;;15.68;58.50;99153.81;5187356;28;20068;-70
2022/06/03 01:10:14;;;;;;;3.42;3.05;;;;;;;15.59;58.81;99147.59;5205597;28;20103;-70
2022/06/03 01:13:18;;;;;;;4.65;3.38;;;;;;;15.68;58.20;99153.81;5216338;28;20166;-70
2022/06/03 01:16:42;;;;;;;3.33;3.03;;;;;;;15.34;59.10;99138.84;5211692;28;20439;-69
2022/06/03 01:20:02;;;;;;;5.03;3.33;;;;;;;15.41;58.98;99153.19;5220794;28;20175;-69
2022/06/03 01:23:07;;;;;;;4.28;3.13;;;;;;;15.41;58.57;99155.03;5209882;28;20689;-69
2022/06/03 01:26:30;;;;;;;7.22;3.20;;;;;;;15.54;59.13;99163.34;5225253;28;20098;-70
2022/06/03 01:30:00;;;;;;;5.25;3.30;;;;;;;15.46;59.15;99156.19;5196731;28;20582;-70
2022/06/03 01:33:15;;;;;;;6.93;3.20;;;;;;;15.27;59.72;99165.41;5189353;28;20431;-69
2022/06/03 01:36:08;;;;;;;7.35;3.50;;;;;;;15.43;59.32;99169.91;5201999;28;20051;-69
2022/06/03 01:39:17;;;;;;;3.60;3.30;;;;;;;15.38;60.04;99174.91;5225481;28;20556;-69
2022/06/03 01:42:49;;;;;;;7.05;3.47;;;;;;;15.41;59.89;99174.56;5224966;28;20064;-70
2022/06/03 01:46:17;;;;;;;4.78;3.42;;;;;;;15.21;60.56;99175.94;5186065;28;20088;-69
2022/06/03 01:49:16;;;;;;;6.75;3.38;;;;;;;15.32;60.59;99169.41;5224948;28;20597;-70
2022/06/03 01:52:37;;;;;;;6.10;3.95;;;;;;;15.37;60.46;99173.25;5225047;28;20076;-69
2022/06/03 01:55:42;;;;;;;3.55;3.25;;;;;;;15.21;60.68;99168.75;5233483;28;20059;-70
2022/06/03 01:58:55;;;;;;;4.30;3.63;;;;;;;15.37;60.27;99167.06;5204842;28;20048;-69
2022/06/03 02:02:23;;;;;;;6.93;4.15;;;;;;;15.23;60.60;99160.56;5213434;28;20060;-69
2022/06/03 02:05:19;;;;;;;6.88;3.67;;;;;;;15.18;60.11;99153.06;5209762;28;20132;-69
2022/06/03 02:08:47;;;;;;;4.50;3.63;;;;;;;15.01;60.21;99159.44;5224860;28;20127;-69
2022/06/03 02:11:56;;;;;;;4.50;3.92;;;;;;;14.88;61.04;99141.25;5223900;28;20543;-70
2022/06/03 02:15:12;;;;;;;5.82;3.90;;;;;;;15.02;61.06;99140.56;5224669;28;20122;-70
2022/06/03 02:18:13;;;;;;;6.05;3.40;;;;;;;14.77;62.25;99147.75;5209511;28;20079;-70
2022/06/03 02:21:22;;;;;;;5.18;3.55;;;;;;;14.75;61.25;99152.44;5208989;28;20052;-70
2022/06/03 02:24:24;;;;;;;10.90;4.35;;;;;;;15.02;60.91;99153.09;5211991;28;20864;-70
2022/06/03 02:27:50;;;;;;;6.15;4.38;;;;;;;14.83;61.16;99159.59;5224466;28;20138;-69
2022/06/03 02:31:26;;;;;;;5.30;3.55;;;;;;;14.80;61.56;99143.91;5213751;28;20052;-70
2022/06/03 02:34:51;;;;;;;4.55;4.05;;;;;;;14.93;61.71;99159.44;5224009;28;20056;-71
2022/06/03 02:37:58;;;;;;;4.43;3.75;;;;;;;14.96;61.43;99153.75;5224124;28;20629;-71
2022/06/03 02:41:08;;;;;;;7.43;3.83;;;;;;;15.17;61.37;99153.25;5223338;28;20056;-71
2022/06/03 02:44:18;;;;;;;4.40;3.55;;;;;;;14.82;62.24;99146.44;5223104;28;20425;-72
2022/06/03 02:47:42;;;;;;;7.43;4.30;;;;;;;14.78;62.67;99156.59;5223435;28;20048;-71
2022/06/03 02:51:20;;;;;;;4.20;3.78;;;;;;;14.65;62.84;99153.59;5202257;28;20625;-70
2022/06/03 02:54:14;;;;;;;7.15;3.97;;;;;;;14.61;63.49;99160.28;5193565;28;20143;-70
2022/06/03 02:57:23;;;;;;;5.93;4.22;;;;;;;14.95;62.44;99157.44;5223396;28;20044;-71
2022/06/03 03:00:34;;;;;;;7.13;4.45;;;;;;;14.76;62.66;99153.25;5223721;28;20053;-70
2022/06/03 03:03:48;;;;;;;9.23;4.50;;;;;;;14.71;63.35;99153.78;5223748;28;20059;-70
2022/06/03 03:06:42;;;;;;;10.52;4.60;;;;;;;14.75;62.79;99159.59;5223347;28;20075;-71
2022/06/03 03:10:03;;;;;;;6.37;4.57;;;;;;;14.78;62.83;99153.94;5223905;28;20057;-70
2022/06/03 03:13:02;;;;;;;6.10;4.15;;;;;;;14.68;63.26;99164.78;5220030;28;20186;-70
2022/06/03 03:16:24;;;;;;;5.03;4.50;;;;;;;14.80;63.24;99159.91;5223470;28;20053;-70
2022/06/03 03:19:23;;;;;;;8.50;4.20;;;;;;;14.63;63.83;99156.41;5203215;28;20053;-70
2022/06/03 03:22:25;;;;;;;5.75;4.20;;;;;;;14.60;63.16;99146.06;5188071;28;20187;-70
2022/06/03 03:25:27;;;;;;;7.75;4.85;;;;;;;14.68;63.74;99147.94;5223069;28;20438;-70
2022/06/03 03:28:46;;;;;;;6.68;4.50;;;;;;;14.71;63.29;99155.59;5223085;28;20049;-71
2022/06/03 03:32:08;;;;;;;6.65;4.90;;;;;;;14.77;63.03;99157.63;5223499;28;20060;-70
2022/06/03 03:35:21;;;;;;;8.98;4.53;;;;;;;14.82;63.22;99157.09;5223185;28;20052;-70
2022/06/03 03:38:43;;;;;;;7.88;4.72;;;;;;;14.76;63.26;99145.25;5223572;28;20049;-71
2022/06/03 03:42:07;;;;;;;5.10;4.60;;;;;;;14.76;63.42;99145.25;5208456;28;20044;-71
2022/06/03 03:45:29;;;;;;;6.07;4.05;;;;;;;14.57;64.01;99149.94;5222235;28;20667;-71
2022/06/03 03:49:09;;;;;;;5.57;4.20;;;;;;;14.50;63.75;99159.59;5223237;28;20526;-70
2022/06/03 03:52:02;;;;;;;7.22;4.85;;;;;;;14.70;63.13;99153.91;5186090;28;20049;-70
2022/06/03 03:55:30;;;;;;;8.30;5.15;;;;;;;14.74;63.26;99152.59;5222911;28;20519;-71
2022/06/03 03:59:10;;;;;;;10.00;5.20;;;;;;;14.89;63.15;99156.25;5223292;28;20052;-70
2022/06/03 04:02:37;;;;;;;8.75;5.20;;;;;;;14.91;63.14;99154.25;5222347;28;20061;-71
2022/06/03 04:05:47;;;;;;;6.03;5.15;;;;;;;14.82;63.51;99141.09;5223024;28;20187;-70
2022/06/03 04:09:15;;;;;;;9.35;4.85;;;;;;;14.93;63.39;99146.06;5202615;28;20423;-71
2022/06/03 04:12:48;;;;;;;7.20;5.22;;;;;;;14.97;63.67;99136.75;5187570;28;20187;-70
2022/06/03 04:16:15;;;;;;;13.77;4.80;;;;;;;14.82;64.03;99141.91;5202394;28;20068;-71
2022/06/03 04:19:14;;;;;;;9.18;5.70;;;;;;;14.85;64.60;99148.75;5202437;28;20407;-71
2022/06/03 04:22:42;;;;;;;7.22;5.20;;;;;;;14.90;64.05;99141.06;5202273;28;20527;-71
2022/06/03 04:26:13;;;;;;;6.03;5.18;;;;;;;14.77;64.87;99139.75;5219669;28;20146;-71
2022/06/03 04:29:34;;;;;;;7.88;5.10;;;;;;;14.74;65.44;99139.25;5202596;28;20053;-71
2022/06/03 04:33:01;;;;;;;11.75;5.95;;;;;;;14.97;64.81;99156.28;5202232;28;20100;-71
2022/06/03 04:36:33;;;;;;;7.35;6.00;;;;;;;14.91;64.37;99142.75;5216801;28;20056;-70
2022/06/03 04:40:01;;;;;;;7.22;5.80;;;;;;;14.90;64.25;99144.59;5221612;28;20049;-70
2022/06/03 04:43:48;;;;;;;7.72;6.55;;;;;;;14.99;64.28;99143.56;5221907;28;20414;-72
2022/06/03 04:47:15;;;;;;;11.88;6.10;;;;;;;14.96;64.25;99138.56;5205796;28;20052;-70
2022/06/03 04:50:21;;;;;;;9.48;6.35;;;;;;;14.93;64.84;99138.94;5222795;28;20045;-69
2022/06/03 04:53:33;;;;;;;8.02;5.47;;;;;;;15.11;62.95;99141.41;5222156;28;20581;-68
2022/06/03 04:56:37;;;;;;;9.35;5.75;;;;;;;15.18;63.40;99131.69;5223695;28;20052;-69
2022/06/03 04:59:45;;;;;;;7.88;5.70;;;;;;;15.27;62.86;99138.69;5226304;28;20512;-69
2022/06/03 05:03:24;;;;;;;12.10;6.32;;;;;;;15.43;63.18;99145.84;5224773;28;20056;-70
2022/06/03 05:06:43;;;;;;;13.65;7.03;;;;;;;15.57;62.94;99136.28;5205890;28;20127;-69
2022/06/03 05:10:00;;;;;;;13.95;6.82;;;;;;;15.83;62.91;99135.22;5205758;28;20156;-68
2022/06/03 05:13:27;;;;;;;11.68;6.43;;;;;;;15.98;61.24;99126.25;5206299;28;20139;-69
2022/06/03 05:16:58;;;;;;;12.68;6.85;;;;;;;16.19;62.35;99122.13;5225755;28;20163;-69
2022/06/03 05:20:23;;;;;;;8.98;6.28;;;;;;;16.34;60.74;99135.59;5221106;28;20419;-68
2022/06/03 05:23:47;;;;;;;10.73;7.07;;;;;;;16.38;60.07;99140.41;5209107;28;20084;-69
2022/06/03 05:26:55;;;;;;;7.05;5.90;;;;;;;16.49;59.26;99146.34;5206368;28;20052;-69
2022/06/03 05:30:15;;;;;;;14.95;6.10;;;;;;;16.67;60.42;99134.34;5213847;28;20056;-70
2022/06/03 05:33:55;;;;;;;10.48;6.05;;;;;;;16.74;59.47;99112.19;5224590;28;20047;-70
2022/06/03 05:37:01;;;;;;;9.95;5.85;;;;;;;16.97;59.22;99117.56;5165199;28;20097;-70
2022/06/03 05:40:07;;;;;;;12.25;6.63;;;;;;;17.14;59.88;99117.19;5226001;28;20048;-67
2022/06/03 05:43:30;;;;;;;10.10;6.50;;;;;;;17.40;58.10;99123.16;5223908;28;20056;-66
2022/06/03 05:47:02;;;;;;;12.15;7.68;;;;;;;17.48;59.51;99129.25;5201878;28;20153;-67
2022/06/03 05:50:09;;;;;;;12.02;8.50;;;;;;;17.66;58.59;99130.72;5162725;28;20053;-67
2022/06/03 05:53:12;;;;;;;9.13;6.90;;;;;;;18.11;56.62;99129.66;5166433;28;20104;-68
2022/06/03 05:56:21;;;;;;;8.48;6.10;;;;;;;18.21;55.22;99123.97;5211072;28;20059;-68
2022/06/03 05:59:11;;;;;;;9.88;6.15;;;;;;;18.28;55.29;99139.16;5222553;28;20056;-68
2022/06/03 06:02:13;;;;;;;5.97;5.38;;;;;;;18.33;55.19;99133.22;5221794;28;20053;-68
2022/06/03 06:05:22;;;;;;;8.45;5.28;;;;;;;18.43;55.03;99132.91;5224383;28;20052;-68
2022/06/03 06:08:33;;;;;;;7.53;5.05;;;;;;;18.67;53.84;99119.06;5223707;28;20103;-68
2022/06/03 06:11:44;;;;;;;7.80;5.18;;;;;;;18.73;54.56;99136.31;5224830;28;20053;-69
2022/06/03 06:14:53;;;;;;;8.73;6.30;;;;;;;18.77;54.60;99133.06;5218719;28;20175;-69
2022/06/03 06:18:30;;;;;;;6.38;5.70;;;;;;;19.08;54.45;99112.22;5205763;28;20104;-68
2022/06/03 06:21:46;;;;;;;6.57;5.40;;;;;;;19.44;51.89;99112.06;5202886;28;20060;-68
2022/06/03 06:25:10;;;;;;;11.93;5.70;;;;;;;19.28;54.85;99106.97;5219458;28;20112;-67
2022/06/03 06:28:03;;;;;;;16.08;6.28;;;;;;;19.44;54.52;99102.13;5220935;28;20063;-67
2022/06/03 06:30:56;;;;;;;6.93;5.82;;;;;;;19.76;52.99;99098.97;5222300;28;20068;-68
2022/06/03 06:34:03;;;;;;;6.65;6.00;;;;;;;19.93;53.18;99090.38;5223672;28;20060;-68
2022/06/03 06:36:59;;;;;;;11.27;6.40;;;;;;;19.97;52.47;99096.19;5226363;28;20652;-67
2022/06/03 06:40:14;;;;;;;9.80;6.30;;;;;;;20.28;51.91;99094.81;5220251;28;20045;-68
2022/06/03 06:43:12;;;;;;;6.72;5.68;;;;;;;20.31;54.13;99092.53;5228111;28;20537;-69
2022/06/03 06:46:36;;;;;;;13.15;7.00;;;;;;;20.62;53.06;99100.06;5231896;28;20561;-69
2022/06/03 06:49:34;;;;;;;6.40;5.10;;;;;;;20.93;51.31;99100.50;5223930;28;20053;-69
2022/06/03 06:52:39;;;;;;;11.75;5.90;;;;;;;21.05;52.11;99104.22;5203234;28;20056;-69
2022/06/03 06:56:06;;;;;;;11.13;5.90;;;;;;;22.12;49.24;99099.34;5208035;28;20059;-69
2022/06/03 06:59:03;;;;;;;6.32;5.35;;;;;;;22.51;47.17;99085.59;5203197;28;20101;-70
2022/06/03 07:02:03;;;;;;;7.07;5.50;;;;;;;22.66;47.66;99085.31;5207250;28;20056;-69
2022/06/03 07:05:28;;;;;;;13.57;5.57;;;;;;;23.30;47.25;99091.41;5207621;28;20059;-70
2022/06/03 07:08:23;;;;;;;;;;;;;;;24.05;44.58;99088.47;5227705;28;20127;-71
2022/06/03 07:11:27;;;;;;;13.13;6.03;;;;;;;24.45;45.21;99093.34;5243552;28;19927;-71
2022/06/03 07:14:29;;;;;;;7.60;5.15;;;;;;;24.58;45.44;99089.63;5208319;28;20049;-71
2022/06/03 07:20:49;;;;;;;6.45;5.47;;;;;;;26.68;42.80;99094.94;5222973;28;20124;-70
2022/06/03 07:23:50;;;;;;;12.63;5.20;;;;;;;26.99;40.18;99090.81;5222569;28;20511;-70
2022/06/03 07:26:47;;;;;;;7.28;4.63;;;;;;;27.68;39.78;99082.28;5222429;28;20057;-70
2022/06/03 07:29:42;;;;;;;6.85;5.75;;;;;;;27.64;41.18;99076.50;5222702;28;20522;-70
2022/06/03 07:32:41;;;;;;;6.78;4.93;;;;;;;27.08;40.90;99075.72;5222524;28;20677;-71
2022/06/03 07:35:38;;;;;;;7.35;5.18;;;;;;;28.30;38.88;99067.47;5221738;28;20828;-71
2022/06/03 07:38:42;;;;;;;7.25;4.50;;;;;;;28.58;38.53;99074.59;5228013;28;20109;-71
2022/06/03 07:41:50;;;;;;;7.65;5.20;;;;;;;28.97;36.96;99066.97;5227039;28;20649;-70
2022/06/03 07:44:47;;;;;;;7.05;5.07;;;;;;;29.34;37.45;99059.84;5231916;28;20059;-70
2022/06/03 07:47:39;;;;;;;14.13;5.03;;;;;;;29.40;38.10;99051.41;5229665;28;20061;-69
2022/06/03 07:50:34;;;;;;;8.05;4.50;;;;;;;29.99;36.31;99054.94;5212819;28;20056;-71
2022/06/03 07:53:46;;;;;;;5.57;4.28;;;;;;;29.58;35.94;99054.78;5222119;28;20090;-69
2022/06/03 07:56:37;;;;;;;5.47;4.53;;;;;;;30.36;35.84;99043.81;5229126;28;20538;-69
2022/06/03 07:59:32;;;;;;;7.15;4.53;;;;;;;30.05;36.76;99037.47;5220387;28;20055;-70
2022/06/03 08:02:22;;;;;;;5.05;4.32;;;;;;;30.46;37.03;99026.59;5203332;28;20566;-70
2022/06/03 08:05:17;;;;;;;5.43;4.18;;;;;;;30.92;36.26;99021.94;5221522;28;20081;-71
2022/06/03 08:11:31;;;;;;;6.45;4.00;;;;;;;30.78;36.73;99009.94;5212144;28;20071;-70
2022/06/03 08:14:27;;;;;;;12.45;4.22;;;;;;;31.08;35.49;99006.31;5222077;28;20064;-70
2022/06/03 08:17:19;;;;;;;6.50;3.95;;;;;;;30.97;36.11;98993.75;5222128;28;20069;-74
2022/06/03 08:20:10;;;;;;;6.28;3.65;;;;;;;31.35;34.29;98998.56;5222279;28;20518;-70
2022/06/03 08:23:03;;;;;;;4.65;3.83;;;;;;;31.68;33.85;98990.75;5220946;28;20052;-70
2022/06/03 08:25:58;;;;;;;5.30;4.10;;;;;;;31.18;34.81;99003.53;5221554;28;20114;-71
2022/06/03 08:28:57;;;;;;;4.32;3.42;;;;;;;31.11;35.58;99003.81;5222072;28;20630;-71
2022/06/03 08:31:48;;;;;;;4.70;4.15;;;;;;;30.46;34.69;98993.75;5225088;28;20178;-71
2022/06/03 08:34:44;;;;;;;4.53;3.58;;;;;;;31.43;33.53;98988.16;5218133;28;20426;-71
2022/06/03 08:37:48;;;;;;;5.32;3.38;;;;;;;31.05;35.36;98976.72;5222533;28;20053;-72
2022/06/03 08:41:00;;;;;;;4.72;3.60;;;;;;;31.87;34.36;98979.94;5239526;28;20052;-72
2022/06/03 08:44:28;;;;;;;4.63;3.28;;;;;;;31.67;35.79;98969.09;5232601;28;20063;-71
2022/06/03 08:47:38;;;;;;;4.50;3.47;;;;;;;32.13;33.65;98980.63;5231312;28;20052;-71
2022/06/03 08:50:40;;;;;;;7.30;3.90;;;;;;;31.37;34.74;98979.13;5205657;28;20084;-71
2022/06/03 08:53:48;;;;;;;4.05;2.70;;;;;;;32.26;34.13;98976.41;5228361;28;20055;-71
2022/06/03 08:56:44;;;;;;;5.43;3.03;;;;;;;32.71;33.73;98969.69;5203527;28;20092;-71
2022/06/03 08:59:39;;;;;;;4.45;3.10;;;;;;;32.58;35.08;98956.66;5204050;28;20064;-71
2022/06/03 09:02:37;;;;;;;3.05;2.75;;;;;;;33.11;33.69;98967.66;5213425;28;20683;-71
2022/06/03 09:05:37;;;;;;;6.00;3.10;;;;;;;32.09;34.47;98960.38;5222685;28;20064;-71
2022/06/03 09:08:39;;;;;;;6.47;3.15;;;;;;;30.01;36.29;98948.88;5225673;28;20059;-71
2022/06/03 09:11:43;;;;;;;4.13;3.40;;;;;;;30.61;36.74;98950.81;5224815;28;20049;-71
2022/06/03 09:14:35;;;;;;;7.93;3.08;;;;;;;31.95;35.76;98937.41;5223406;28;20515;-71
2022/06/03 09:17:25;;;;;;;6.22;3.28;;;;;;;32.15;34.50;98937.25;5208488;28;20427;-71
2022/06/03 09:20:21;;;;;;;3.90;3.00;;;;;;;32.57;32.57;98919.34;5224465;28;20106;-72
2022/06/03 09:23:16;;;;;;;5.85;2.88;;;;;;;32.62;33.23;98923.97;5223101;28;20061;-72
2022/06/03 09:26:16;;;;;;;3.30;2.90;;;;;;;32.71;33.46;98920.28;5227247;28;20052;-71
2022/06/03 09:29:10;;;;;;;9.30;2.80;;;;;;;32.39;33.43;98909.09;5224144;28;20464;-71
2022/06/03 09:32:02;;;;;;;;;;;;;;;32.45;34.08;98911.53;5223611;28;20048;-71
2022/06/03 09:35:01;;;;;;;5.07;2.70;;;;;;;30.85;35.14;98909.97;5223954;28;19927;-71
2022/06/03 09:37:55;;;;;;;2.90;2.50;;;;;;;31.44;33.85;98911.13;5240772;28;20149;-71
2022/06/03 09:40:47;;;;;;;4.88;2.63;;;;;;;31.74;34.40;98918.34;5244264;28;20059;-71
2022/06/03 09:43:43;;;;;;;3.42;2.50;;;;;;;31.92;34.79;98913.31;5237234;28;20056;-71
2022/06/03 09:46:35;;;;;;;2.83;2.40;;;;;;;30.71;37.85;98908.91;5229438;28;20584;-71
2022/06/03 09:49:28;;;;;;;3.92;2.70;;;;;;;32.40;33.23;98910.72;5246018;28;20059;-71
2022/06/03 09:52:22;;;;;;;5.95;2.70;;;;;;;32.32;33.63;98914.91;5245539;28;20292;-71
2022/06/03 09:55:29;;;;;;;5.00;2.63;;;;;;;33.53;32.83;98919.34;5228123;28;20081;-71
2022/06/03 09:58:24;;;;;;;7.60;2.78;;;;;;;33.61;32.90;98912.34;5227806;28;20067;-71
2022/06/03 10:01:14;;;;;;;8.95;2.70;;;;;;;32.29;34.64;98908.06;5233803;28;20049;-71
2022/06/03 10:04:06;;;;;;;6.13;2.80;;;;;;;32.81;34.13;98902.88;5233386;28;20056;-70
2022/06/03 10:07:00;;;;;;;9.75;3.42;;;;;;;32.96;32.35;98897.25;5231182;28;20511;-70
2022/06/03 10:13:08;;;;;;;5.05;2.20;;;;;;;33.35;31.75;98895.38;5230029;28;20417;-70
2022/06/03 10:16:00;;;;;;;4.63;2.70;;;;;;;32.95;33.65;98895.59;5234085;28;20098;-71
2022/06/03 10:18:51;;;;;;;4.25;2.40;;;;;;;32.86;32.64;98896.53;5231891;28;20231;-71
2022/06/03 10:21:51;;;;;;;3.65;2.00;;;;;;;32.63;31.55;98900.91;5234250;28;20043;-71
2022/06/03 10:24:41;;;;;;;5.63;2.38;;;;;;;32.36;33.79;98906.91;5226830;28;20045;-72
2022/06/03 10:27:32;;;;;;;5.13;2.90;;;;;;;32.11;32.36;98897.78;5226475;28;20717;-70
2022/06/03 10:30:28;;;;;;;3.90;2.38;;;;;;;32.15;33.86;98904.34;5231484;28;20052;-70
2022/06/03 10:33:22;;;;;;;6.35;2.50;;;;;;;32.07;34.20;98902.22;5221341;28;20064;-70
2022/06/03 10:36:12;;;;;;;8.82;2.55;;;;;;;31.60;36.21;98892.69;5204667;28;20483;-70
2022/06/03 10:39:03;;;;;;;5.00;2.50;;;;;;;30.55;36.04;98893.63;5222623;28;20496;-70
2022/06/03 10:41:58;;;;;;;9.65;2.92;;;;;;;30.00;39.19;98887.09;5223301;28;20489;-73
2022/06/03 10:44:54;;;;;;;4.60;2.58;;;;;;;29.86;38.41;98884.06;5222470;28;20507;-70
2022/06/03 10:47:44;;;;;;;8.30;2.72;;;;;;;29.91;38.90;98881.34;5212709;28;20071;-69
2022/06/03 10:50:38;;;;;;;4.38;2.47;;;;;;;30.11;37.09;98889.56;5223666;28;20139;-69
2022/06/03 11:02:57;;;;;;;5.18;2.55;;;;;;;29.25;39.28;98888.31;5218218;28;20057;-70
2022/06/03 11:05:48;;;;;;;2.53;2.33;;;;;;;29.33;40.21;98897.88;5221879;28;20057;-70
2022/06/03 11:08:49;;;;;;;5.20;3.08;;;;;;;30.08;39.21;98894.75;5222941;28;20526;-71
2022/06/03 11:11:47;;;;;;;5.40;2.88;;;;;;;30.00;39.19;98901.59;5219965;28;20103;-71
2022/06/03 11:14:40;;;;;;;6.20;2.67;;;;;;;28.60;40.93;98910.63;5216437;28;20052;-71
2022/06/03 11:17:40;;;;;;;6.60;2.97;;;;;;;29.00;40.38;98897.22;5221461;28;20056;-69
2022/06/03 11:20:40;;;;;;;5.65;2.95;;;;;;;29.20;39.99;98922.97;5238223;28;20132;-73
2022/06/03 11:23:30;;;;;;;7.40;2.80;;;;;;;27.94;42.05;98921.84;5228202;28;20132;-73
2022/06/03 11:26:26;;;;;;;5.38;2.90;;;;;;;28.20;41.88;98933.78;5221055;28;20063;-69
2022/06/03 11:29:32;;;;;;;3.75;2.97;;;;;;;27.71;41.68;98939.28;5222949;28;20048;-70
2022/06/03 11:32:26;;;;;;;6.72;3.35;;;;;;;27.21;43.08;98926.75;5220493;28;20127;-70
2022/06/03 11:35:25;;;;;;;7.13;3.33;;;;;;;26.99;44.28;98949.34;5200961;28;20048;-71
2022/06/03 11:38:35;;;;;;;8.65;3.83;;;;;;;27.88;41.62;98929.13;5220539;28;20134;-72
2022/06/03 11:41:30;;;;;;;9.40;3.22;;;;;;;27.80;43.04;98926.88;5217625;28;20064;-72
2022/06/03 11:44:39;;;;;;;5.55;3.17;;;;;;;27.81;42.39;98937.50;5203285;28;20096;-68
2022/06/03 11:47:35;;;;;;;5.47;3.13;;;;;;;27.83;42.26;98910.03;5220640;28;20053;-70
2022/06/03 11:50:28;;;;;;;6.38;3.30;;;;;;;27.80;42.44;98900.47;5220453;28;20055;-75
2022/06/03 11:53:24;;;;;;;7.68;3.00;;;;;;;27.66;43.34;98895.69;5217307;28;20505;-73
2022/06/03 11:56:22;;;;;;;4.85;2.90;;;;;;;27.70;42.80;98904.97;5218226;28;20444;-71
2022/06/03 11:59:19;;;;;;;8.95;2.97;;;;;;;27.70;42.53;98910.41;5219433;28;20049;-71
2022/06/03 12:02:31;;;;;;;7.40;3.60;;;;;;;27.34;42.93;98918.19;5218025;28;20143;-70
2022/06/03 12:05:29;;;;;;;4.07;3.40;;;;;;;27.39;43.24;98910.09;5217198;28;20060;-71
2022/06/03 12:08:42;;;;;;;4.53;3.35;;;;;;;27.49;42.74;98893.88;5216893;28;20171;-70
2022/06/03 12:15:31;;;;;;;5.65;3.25;;;;;;;27.62;43.25;98849.88;5212874;28;20446;-70
2022/06/03 12:18:30;;;;;;;10.23;3.67;;;;;;;28.02;46.23;98848.59;5219435;28;20056;-69
2022/06/03 12:21:30;;;;;;;17.17;5.60;;;;;;;28.42;44.57;98841.81;5216729;28;20045;-69
2022/06/03 12:24:31;;;;;;;10.63;3.95;;;;;;;28.84;45.80;98800.00;5217753;28;20576;-70
2022/06/03 12:27:32;;;;;;;12.32;3.60;;;;;;;29.07;43.72;98825.19;5220478;28;20053;-72
2022/06/03 12:30:33;;;;;;;9.85;4.47;;;;;;;29.24;41.01;98825.81;5202284;28;20067;-74
2022/06/03 12:33:27;;;;;;;6.57;3.65;;;;;;;29.11;41.61;98818.13;5229407;28;20055;-71
2022/06/03 12:36:23;;;;;;;9.55;4.68;;;;;;;29.39;41.21;98842.19;5226032;28;20049;-73
2022/06/03 12:39:31;;;;;;;8.68;4.00;;;;;;;29.08;41.34;98851.41;5221000;28;20530;-73
2022/06/03 12:42:27;;;;;;;7.63;3.55;;;;;;;28.74;41.81;98868.16;5211629;28;20059;-72
2022/06/03 12:45:31;;;;;;;11.23;3.55;;;;;;;28.56;42.22;98869.44;5221884;28;20127;-72
2022/06/03 12:48:47;;;;;;;5.53;3.78;;;;;;;28.85;44.22;98879.97;5220957;28;20131;-70
2022/06/03 12:52:01;;;;;;;9.40;3.63;;;;;;;28.83;41.44;98863.84;5220013;28;20052;-71
2022/06/03 12:55:17;;;;;;;9.65;3.53;;;;;;;28.96;41.20;98849.69;5216052;28;20515;-70
2022/06/03 12:58:25;;;;;;;9.05;3.50;;;;;;;28.90;42.92;98863.59;5229309;28;20052;-70
2022/06/03 13:01:47;;;;;;;9.52;3.38;;;;;;;28.91;41.26;98862.53;5201915;28;20091;-69
2022/06/03 13:04:41;;;;;;;5.80;3.28;;;;;;;28.96;42.82;98862.53;5188387;28;20052;-69
2022/06/03 13:07:34;;;;;;;5.40;3.83;;;;;;;28.94;42.23;98864.69;5219867;28;20056;-69
2022/06/03 13:10:27;;;;;;;8.30;3.58;;;;;;;28.87;42.62;98867.66;5219972;28;20099;-69
2022/06/03 13:13:24;;;;;;;5.95;3.33;;;;;;;28.85;43.25;98867.13;5218967;28;20543;-69
2022/06/03 13:16:28;;;;;;;7.95;3.70;;;;;;;28.19;42.83;98874.91;5221026;28;20063;-69
2022/06/03 13:19:18;;;;;;;9.73;3.60;;;;;;;28.13;42.62;98884.94;5224410;28;20589;-69
2022/06/03 13:22:09;;;;;;;6.18;3.47;;;;;;;27.79;43.33;98898.81;5223593;28;20079;-69
2022/06/03 13:25:24;;;;;;;7.57;3.47;;;;;;;28.09;43.36;98900.19;5223071;28;20052;-69
2022/06/03 13:28:19;;;;;;;4.10;3.00;;;;;;;28.08;43.33;98907.53;5216882;28;20127;-69
2022/06/03 13:31:41;;;;;;;9.18;3.63;;;;;;;28.02;45.66;98914.03;5220464;28;20049;-69
2022/06/03 13:34:41;;;;;;;4.97;3.58;;;;;;;28.10;44.03;98908.06;5212528;28;20061;-69
2022/06/03 13:37:47;;;;;;;5.18;3.60;;;;;;;28.39;45.76;98921.41;5225675;28;20060;-69
2022/06/03 13:42:57;;;;;;;11.10;3.80;;;;;;;28.44;49.07;98915.16;5225219;28;20056;-69
2022/06/03 13:44:05;;;;;;;6.43;3.60;;;;;;;28.38;49.44;98910.72;5224827;28;20584;-69
2022/06/03 13:46:56;;;;;;;8.77;3.92;;;;;;;28.32;49.58;98923.53;5197052;28;20056;-69
2022/06/03 13:49:48;;;;;;;5.85;4.72;;;;;;;28.17;48.76;98937.03;5210551;28;20079;-69
2022/06/03 13:52:46;;;;;;;7.70;5.13;;;;;;;28.06;51.11;98930.69;5204397;28;20519;-69
2022/06/03 13:55:42;;;;;;;5.68;4.25;;;;;;;27.57;51.24;98931.53;5207934;28;20503;-69
2022/06/03 13:58:40;;;;;;;6.00;4.43;;;;;;;27.57;50.38;98907.00;5225469;28;20128;-69
2022/06/03 14:01:41;;;;;;;7.20;4.05;;;;;;;27.37;48.66;98928.59;5209305;28;20056;-69
2022/06/03 14:04:32;;;;;;;7.72;4.07;;;;;;;27.33;49.30;98922.84;5208861;28;20495;-70
2022/06/03 14:07:29;;;;;;;7.30;4.40;;;;;;;27.61;49.93;98929.13;5189208;28;20061;-69
2022/06/03 14:10:22;;;;;;;6.88;4.28;;;;;;;27.59;49.73;98921.22;5205500;28;20075;-69
2022/06/03 14:13:15;;;;;;;9.55;4.80;;;;;;;27.56;51.58;98920.91;5224554;28;20422;-70
2022/06/03 14:16:11;;;;;;;12.30;4.18;;;;;;;27.36;48.96;98914.16;5224707;28;20075;-69
2022/06/03 14:19:07;;;;;;;8.43;4.05;;;;;;;27.17;49.60;98912.84;5224527;28;20056;-70
2022/06/03 14:22:19;;;;;;;5.03;3.65;;;;;;;27.26;46.96;98881.38;5205165;28;20052;-70
2022/06/03 14:25:39;;;;;;;7.90;4.20;;;;;;;27.47;47.61;98906.09;5223410;28;20109;-71
2022/06/03 14:28:41;;;;;;;8.57;4.13;;;;;;;27.33;47.85;98905.69;5203437;28;20058;-71
2022/06/03 14:31:50;;;;;;;6.03;3.72;;;;;;;27.29;49.83;98910.00;5214372;28;20049;-70
2022/06/03 14:34:49;;;;;;;5.47;4.18;;;;;;;27.19;49.43;98904.44;5196759;28;20179;-69
2022/06/03 14:37:58;;;;;;;9.02;3.65;;;;;;;26.96;48.53;98910.91;5209257;28;20127;-69
2022/06/03 14:40:50;;;;;;;10.43;4.70;;;;;;;27.17;47.08;98913.66;5218787;28;20138;-69
2022/06/03 14:43:41;;;;;;;7.93;3.90;;;;;;;27.24;48.37;98907.19;5221708;28;20052;-71
2022/06/03 14:46:38;;;;;;;7.10;3.95;;;;;;;27.25;48.56;98915.13;5202974;28;20069;-69
2022/06/03 14:49:44;;;;;;;5.93;3.88;;;;;;;27.09;46.67;98911.38;5202058;28;20172;-69
2022/06/03 14:52:40;;;;;;;11.02;3.97;;;;;;;27.30;46.67;98908.91;5221189;28;20059;-69
2022/06/03 14:55:42;;;;;;;6.38;3.90;;;;;;;27.38;46.63;98892.09;5203812;28;20063;-69